Time;durP1;ratioP1;P1;durP2;ratioP2;P2;SDS_P1;SDS_P2;PMS_P1;PMS_P2;Temp;Humidity;BMP_temperature;BMP_pressure;BME280_temperature;BME280_humidity;BME280_pressure;Samples;Min_cycle;Max_cycle;Signal;HPM_P1;HPM_P2
2022/04/14 00:03:26;;;;;;;;;;;16.50;36.30;;;15.30;38.34;101330.94;8289500;28;20011;-87
2022/04/14 00:07:48;;;;;;;;;;;16.50;36.40;;;15.22;38.07;101328.78;8307741;28;20659;-87
2022/04/14 00:12:09;;;;;;;;;;;16.40;36.40;;;15.17;38.11;101317.72;8286785;28;20435;-87
2022/04/14 00:16:31;;;;;;;;;;;16.40;36.40;;;15.12;38.02;101317.19;8302780;28;20040;-87
2022/04/14 00:20:53;;;;;;;;;;;16.40;36.40;;;15.03;38.33;101316.84;8290427;28;19925;-87
2022/04/14 00:25:15;;;;;;;;;;;16.30;36.40;;;15.03;38.03;101324.72;8304313;28;19923;-87
2022/04/14 00:29:38;;;;;;;;;;;16.30;36.50;;;14.91;38.30;101311.53;8276245;28;20330;-87
2022/04/14 00:33:59;;;;;;;;;;;16.10;36.40;;;14.84;38.55;101305.81;8301080;28;19921;-86
2022/04/14 00:38:21;;;;;;;;;;;16.20;36.50;;;14.89;38.34;101339.72;8307976;28;19924;-85
2022/04/14 00:42:43;;;;;;;;;;;16.10;36.50;;;14.70;38.49;101317.19;8303426;28;20293;-85
2022/04/14 00:47:06;;;;;;;;;;;16.00;36.50;;;14.67;38.54;101327.06;8325872;28;19917;-85
2022/04/14 00:51:28;;;;;;;;;;;16.00;36.60;;;14.68;38.31;101332.22;8282368;28;19929;-86
2022/04/14 00:55:51;;;;;;;;;;;15.90;36.60;;;14.65;38.57;101344.72;8303252;28;19922;-87
2022/04/14 01:00:12;;;;;;;;;;;15.90;36.60;;;14.59;38.67;101341.53;8301449;28;19928;-85
2022/04/14 01:04:35;;;;;;;;;;;15.80;36.60;;;14.51;38.53;101328.00;8284855;28;20028;-85
2022/04/14 01:13:37;;;;;;;;;;;15.80;36.70;;;14.38;38.33;101327.91;8310941;28;20298;-85
2022/04/14 01:17:59;;;;;;;;;;;15.70;36.70;;;14.32;38.65;101337.94;8312832;28;20464;-87
2022/04/14 01:22:30;;;;;;;;;;;15.60;36.60;;;14.22;38.51;101329.78;8288123;28;19918;-86
2022/04/14 01:26:52;;;;;;;;;;;15.50;36.70;;;14.02;38.80;101309.16;8305201;28;19917;-86
2022/04/14 01:31:14;;;;;;;;;;;15.50;36.70;;;14.06;38.60;101318.50;8290025;28;20324;-86
2022/04/14 01:35:36;;;;;;;;;;;15.40;36.70;;;14.05;38.82;101333.44;8320884;28;20389;-86
2022/04/14 01:39:57;;;;;;;;;;;15.30;36.80;;;13.99;38.82;101333.81;8293787;28;19925;-86
2022/04/14 01:44:19;;;;;;;;;;;15.20;36.60;;;13.83;38.60;101318.13;8284409;28;20004;-86
2022/04/14 01:48:41;;;;;;;;;;;15.30;36.70;;;13.85;38.91;101342.50;8281969;28;20016;-86
2022/04/14 01:53:03;;;;;;;;;;;15.20;36.70;;;13.78;38.58;101332.44;8303542;28;20381;-86
2022/04/14 01:57:25;;;;;;;;;;;15.00;36.70;;;13.61;38.74;101328.16;8306090;28;20389;-86
2022/04/14 02:01:47;;;;;;;;;;;15.00;36.70;;;13.58;38.90;101331.81;8288464;28;19922;-86
2022/04/14 02:06:09;;;;;;;;;;;14.90;36.70;;;13.62;38.88;101349.09;8317862;28;20024;-86
2022/04/14 02:10:31;;;;;;;;;;;14.90;36.90;;;13.58;39.22;101350.19;8317468;28;19927;-86
2022/04/14 02:14:53;;;;;;;;;;;14.80;36.90;;;13.44;39.11;101332.59;8298222;28;19921;-86
2022/04/14 02:19:15;;;;;;;;;;;14.80;37.00;;;13.46;39.04;101345.66;8287712;28;20325;-85
2022/04/14 02:23:37;;;;;;;;;;;14.80;37.00;;;13.27;39.15;101320.47;8295446;28;19927;-86
2022/04/14 02:27:59;;;;;;;;;;;14.60;37.00;;;13.19;39.01;101314.78;8311396;28;20007;-86
2022/04/14 02:32:21;;;;;;;;;;;14.70;37.10;;;13.20;39.00;101324.31;8304707;28;20161;-86
2022/04/14 02:36:43;;;;;;;;;;;14.50;37.00;;;13.06;39.40;101316.41;8319129;28;20520;-86
2022/04/14 02:41:04;;;;;;;;;;;14.50;37.00;;;13.19;39.16;101346.25;8314878;28;20008;-86
2022/04/14 02:45:27;;;;;;;;;;;14.50;37.50;;;13.17;39.23;101344.66;8317903;28;19974;-86
2022/04/14 02:49:49;;;;;;;;;;;14.40;37.10;;;13.14;39.30;101350.91;8288067;28;19924;-86
2022/04/14 02:54:10;;;;;;;;;;;14.30;37.10;;;13.03;39.37;101350.66;8314519;28;20415;-86
2022/04/14 02:58:32;;;;;;;;;;;14.40;37.10;;;13.03;39.41;101364.63;8304483;28;20015;-86
2022/04/14 03:02:54;;;;;;;;;;;14.30;37.20;;;12.87;39.19;101348.03;8291784;28;19917;-86
2022/04/14 03:07:16;;;;;;;;;;;14.30;37.20;;;12.76;39.53;101338.13;8313682;28;19927;-86
2022/04/14 03:11:38;;;;;;;;;;;14.20;37.20;;;12.70;39.15;101346.34;8309664;28;20445;-86
2022/04/14 03:16:00;;;;;;;;;;;14.10;37.20;;;12.82;39.44;101368.41;8322187;28;19917;-87
2022/04/14 03:20:21;;;;;;;;;;;14.10;37.20;;;12.80;39.60;101360.66;8311540;28;20328;-87
2022/04/14 03:24:43;;;;;;;;;;;14.10;37.30;;;12.66;39.60;101347.41;8315427;28;20332;-86
2022/04/14 03:29:05;;;;;;;;;;;14.10;37.20;;;12.61;39.59;101362.56;8274162;28;20008;-86
2022/04/14 03:33:27;;;;;;;;;;;13.90;37.30;;;12.61;39.86;101373.06;8296189;28;19924;-86
2022/04/14 03:37:49;;;;;;;;;;;14.00;37.40;;;12.57;39.74;101376.75;8283514;28;20039;-86
2022/04/14 03:42:11;;;;;;;;;;;13.90;37.40;;;12.45;39.56;101356.44;8284500;28;19917;-86
2022/04/14 03:46:33;;;;;;;;;;;13.90;37.30;;;12.44;39.65;101375.69;8335645;28;20012;-86
2022/04/14 03:50:55;;;;;;;;;;;13.80;37.40;;;12.30;39.86;101369.41;8324415;28;20003;-86
2022/04/14 03:55:17;;;;;;;;;;;13.80;37.50;;;12.31;39.92;101373.75;8295981;28;19925;-87
2022/04/14 03:59:39;;;;;;;;;;;13.80;37.60;;;12.25;39.83;101366.19;8311917;28;20012;-87
2022/04/14 04:04:00;;;;;;;;;;;13.70;37.60;;;12.23;39.79;101364.56;8319481;28;20004;-86
2022/04/14 04:08:22;;;;;;;;;;;13.60;37.60;;;12.21;40.21;101358.59;8322877;28;20449;-86
2022/04/14 04:12:44;;;;;;;;;;;13.60;37.60;;;12.24;40.00;101372.34;8283939;28;20411;-87
2022/04/14 04:17:06;;;;;;;;;;;13.60;37.70;;;12.22;39.83;101379.44;8298675;28;19917;-87
2022/04/14 04:21:29;;;;;;;;;;;13.60;37.70;;;12.15;39.84;101375.44;8302878;28;20490;-86
2022/04/14 04:25:51;;;;;;;;;;;13.60;37.80;;;12.21;40.44;101397.88;8305530;28;19919;-86
2022/04/14 04:30:13;;;;;;;;;;;13.60;37.80;;;12.10;40.21;101382.69;8321797;28;19927;-86
2022/04/14 04:34:34;;;;;;;;;;;13.50;37.90;;;12.16;40.04;101396.31;8313664;28;19936;-86
2022/04/14 04:38:58;;;;;;;;;;;13.60;37.90;;;11.96;39.98;101362.44;8319853;28;19921;-87
2022/04/14 04:43:19;;;;;;;;;;;13.50;38.00;;;12.08;40.48;101392.41;8321799;28;20016;-87
2022/04/14 04:47:41;;;;;;;;;;;13.40;38.00;;;11.93;40.60;101373.91;8317716;28;19940;-86
2022/04/14 04:52:03;;;;;;;;;;;13.30;38.10;;;12.06;40.09;101412.56;8327128;28;20016;-85
2022/04/14 04:56:25;;;;;;;;;;;13.50;38.20;;;11.96;40.38;101406.94;8315938;28;19921;-86
2022/04/14 05:00:47;;;;;;;;;;;13.50;38.40;;;11.92;40.57;101401.00;8310047;28;19927;-87
2022/04/14 05:05:09;;;;;;;;;;;13.40;38.30;;;12.05;40.54;101416.13;8309984;28;19918;-88
2022/04/14 05:09:31;;;;;;;;;;;13.50;38.50;;;12.15;40.10;101420.81;8321132;28;19935;-88
2022/04/14 05:13:53;;;;;;;;;;;13.40;39.00;;;12.16;40.67;101408.56;8319537;28;19921;-89
2022/04/14 05:18:14;;;;;;;;;;;13.60;38.80;;;12.12;40.79;101397.41;8324726;28;20012;-90
2022/04/14 05:22:36;;;;;;;;;;;13.60;39.20;;;12.31;40.91;101423.50;8286316;28;20008;-89
2022/04/14 05:26:58;;;;;;;;;;;13.70;39.00;;;12.46;40.86;101432.31;8295093;28;20027;-89
2022/04/14 05:31:21;;;;;;;;;;;13.80;39.00;;;12.50;40.51;101430.38;8312923;28;20020;-92
2022/04/14 05:35:44;;;;;;;;;;;13.90;39.20;;;12.60;40.80;101436.84;8283728;28;19984;-93
2022/04/14 05:40:06;;;;;;;;;;;14.10;39.50;;;12.68;40.67;101432.03;8272203;28;20060;-92
2022/04/14 05:44:28;;;;;;;;;;;14.20;39.60;;;12.74;40.95;101429.09;8303082;28;19984;-93
2022/04/14 05:48:50;;;;;;;;;;;14.30;39.40;;;12.88;41.05;101435.38;8299118;28;20404;-91
2022/04/14 05:53:12;;;;;;;;;;;14.30;39.40;;;12.95;41.17;101424.50;8295154;28;20012;-92
2022/04/14 05:57:34;;;;;;;;;;;14.50;39.50;;;12.96;40.69;101409.59;8291075;28;19918;-91
2022/04/14 06:01:56;;;;;;;;;;;14.60;39.40;;;13.23;41.17;101433.47;8284538;28;20263;-91
2022/04/14 06:06:18;;;;;;;;;;;14.70;39.50;;;13.18;41.24;101417.16;8313463;28;20782;-89
2022/04/14 06:10:39;;;;;;;;;;;14.80;39.60;;;13.38;41.22;101423.94;8306752;28;20013;-94
2022/04/14 06:15:02;;;;;;;;;;;14.80;39.50;;;13.34;41.30;101404.06;8314106;28;20020;-94
2022/04/14 06:19:24;;;;;;;;;;;15.00;39.70;;;13.59;41.49;101433.25;8300867;28;19992;-94
2022/04/14 06:23:45;;;;;;;;;;;15.10;39.80;;;13.64;41.24;101428.59;8308526;28;20017;-88
2022/04/14 06:28:07;;;;;;;;;;;15.20;39.50;;;13.78;41.40;101432.19;8301809;28;20007;-93
2022/04/14 06:32:30;;;;;;;;;;;15.30;39.50;;;13.86;41.78;101427.34;8290802;28;19935;-91
2022/04/14 06:36:51;;;;;;;;;;;15.50;39.90;;;14.07;41.54;101439.25;8298391;28;20016;-93
2022/04/14 06:41:16;;;;;;;;;;;15.60;41.20;;;14.20;41.79;101449.00;8309231;28;20596;-90
2022/04/14 06:45:38;;;;;;;;;;;15.70;40.40;;;14.16;41.72;101415.06;8324663;28;20028;-91
2022/04/14 06:50:00;;;;;;;;;;;15.80;40.10;;;14.37;41.65;101427.84;8290684;28;20012;-92
2022/04/14 06:54:21;;;;;;;;;;;15.90;40.20;;;14.31;41.90;101415.06;8292323;28;20031;-92
2022/04/14 06:58:43;;;;;;;;;;;16.00;40.20;;;14.56;41.63;101427.63;8284929;28;20000;-92
2022/04/14 07:03:05;;;;;;;;;;;16.20;40.80;;;14.66;41.96;101420.00;8289692;28;20012;-85
2022/04/14 07:07:27;;;;;;;;;;;16.40;40.60;;;14.92;41.94;101445.53;8333252;28;20011;-93
2022/04/14 07:11:48;;;;;;;;;;;16.60;40.60;;;15.01;42.05;101437.09;8315549;28;20015;-92
2022/04/14 07:16:10;;;;;;;;;;;16.50;40.30;;;15.14;41.84;101420.53;8289033;28;19921;-89
2022/04/14 07:20:32;;;;;;;;;;;16.60;40.50;;;15.27;41.80;101416.19;8311311;28;20008;-91
2022/04/14 07:24:54;;;;;;;;;;;16.90;40.50;;;15.48;41.93;101438.50;8311683;28;20033;-92
2022/04/14 07:29:15;;;;;;;;;;;17.00;41.20;;;15.54;41.87;101428.50;8294166;28;20004;-93
2022/04/14 07:33:37;;;;;;;;;;;17.20;40.70;;;15.61;41.82;101419.28;8297893;28;20165;-92
2022/04/14 07:37:59;;;;;;;;;;;17.30;40.50;;;15.80;42.17;101432.97;8313898;28;20395;-95
2022/04/14 07:42:21;;;;;;;;;;;17.30;40.30;;;15.92;41.98;101433.94;8299910;28;20053;-93
2022/04/14 07:46:42;;;;;;;;;;;17.60;41.10;;;16.14;42.05;101435.97;8298409;28;20207;-91
2022/04/14 07:51:04;;;;;;;;;;;17.80;40.30;;;16.29;42.50;101423.56;8301093;28;19939;-93
2022/04/14 07:55:28;;;;;;;;;;;17.90;40.90;;;16.54;42.40;101423.56;8318012;28;20008;-93
2022/04/14 07:59:50;;;;;;;;;;;18.20;40.90;;;16.83;42.18;101447.09;8299105;28;20216;-92
2022/04/14 08:04:12;;;;;;;;;;;18.30;40.80;;;16.99;42.53;101441.59;8301464;28;20000;-91
2022/04/14 08:08:34;;;;;;;;;;;18.50;40.40;;;17.29;42.48;101458.84;8298576;28;20015;-94
2022/04/14 08:12:56;;;;;;;;;;;18.80;41.30;;;17.45;42.47;101443.56;8302413;28;19928;-91
2022/04/14 08:17:17;;;;;;;;;;;19.10;40.60;;;17.55;42.52;101441.94;8293259;28;20020;-94
2022/04/14 08:21:39;;;;;;;;;;;19.20;41.30;;;17.82;42.35;101452.31;8314785;28;20016;-90
2022/04/14 08:26:02;;;;;;;;;;;19.40;41.30;;;18.04;42.42;101459.47;8301896;28;20020;-91
2022/04/14 08:30:24;;;;;;;;;;;19.60;40.80;;;18.27;42.25;101465.66;8270312;28;20457;-89
2022/04/14 08:34:45;;;;;;;;;;;19.80;41.90;;;18.48;42.49;101472.91;8288690;28;20020;-91
2022/04/14 08:39:07;;;;;;;;;;;20.00;40.80;;;18.63;42.38;101463.78;8287439;28;20004;-94
2022/04/14 08:43:36;;;;;;;;;;;20.20;40.80;;;18.83;42.29;101466.75;8280902;28;20023;-90
2022/04/14 08:48:00;;;;;;;;;;;20.50;40.80;;;18.79;42.38;101439.66;8292717;28;20459;-91
2022/04/14 08:52:25;;;;;;;;;;;20.60;40.80;;;18.95;42.17;101447.22;8276804;28;21924;-91
2022/04/14 08:56:47;;;;;;;;;;;20.70;40.70;;;19.30;42.18;101478.00;8283264;28;20016;-92
2022/04/14 09:01:11;;;;;;;;;;;21.10;40.70;;;19.38;42.28;101463.19;8283890;28;20432;-90
2022/04/14 09:05:33;;;;;;;;;;;21.10;40.70;;;19.54;42.21;101478.69;8310099;28;20371;-91
2022/04/14 09:09:56;;;;;;;;;;;21.20;40.40;;;19.75;41.86;101489.38;8291938;28;19928;-86
2022/04/14 09:14:17;;;;;;;;;;;21.30;40.80;;;19.80;42.10;101473.09;8301003;28;19927;-87
2022/04/14 09:18:40;;;;;;;;;;;21.40;40.40;;;19.99;42.22;101491.81;8287221;28;20016;-91
2022/04/14 09:23:21;;;;;;;;;;;21.50;40.40;;;20.16;42.03;101486.91;8284403;28;20011;-92
2022/04/14 09:27:43;;;;;;;;;;;21.70;40.20;;;20.23;42.12;101491.59;8301147;28;19980;-93
2022/04/14 09:32:05;;;;;;;;;;;21.80;40.40;;;20.37;42.08;101489.59;8279181;28;20380;-82
2022/04/14 09:36:27;;;;;;;;;;;21.90;40.40;;;20.48;41.89;101500.13;8315650;28;19921;-85
2022/04/14 09:40:48;;;;;;;;;;;22.00;40.20;;;20.47;41.91;101482.53;8287748;28;20015;-81
2022/04/14 09:45:29;;;;;;;;;;;22.10;39.90;;;20.49;41.72;101470.78;8308683;28;20025;-84
2022/04/14 09:49:51;;;;;;;;;;;22.10;39.90;;;20.63;41.77;101488.25;8317220;28;20009;-82
2022/04/14 09:54:17;;;;;;;;;;;22.20;40.20;;;20.72;41.93;101495.41;8316400;28;19925;-82
2022/04/14 09:58:40;;;;;;;;;;;22.20;39.80;;;20.78;41.75;101478.94;8315450;28;20012;-84
2022/04/14 10:03:15;;;;;;;;;;;22.30;39.80;;;20.82;41.88;101460.09;8293736;28;19941;-82
2022/04/14 10:07:56;;;;;;;;;;;22.40;40.10;;;21.01;41.65;101478.78;8318607;28;20024;-84
2022/04/14 10:12:18;;;;;;;;;;;22.50;40.00;;;21.26;41.74;101482.75;8300000;28;20076;-82
2022/04/14 10:16:43;;;;;;;;;;;22.70;39.90;;;21.36;41.77;101480.09;8326826;28;19925;-84
2022/04/14 10:21:05;;;;;;;;;;;22.80;39.70;;;21.49;41.96;101488.69;8316753;28;20004;-82
2022/04/14 10:25:27;;;;;;;;;;;22.90;39.60;;;21.48;41.66;101475.56;8335664;28;20736;-82
2022/04/14 10:29:49;;;;;;;;;;;23.00;39.50;;;21.38;41.57;101462.25;8306218;28;20020;-82
2022/04/14 10:34:15;;;;;;;;;;;23.00;39.40;;;21.41;41.54;101469.94;8326752;28;19921;-86
2022/04/14 10:38:38;;;;;;;;;;;23.00;39.20;;;21.41;41.42;101467.28;8309040;28;20008;-82
2022/04/14 10:43:00;;;;;;;;;;;23.00;39.20;;;21.48;41.46;101489.69;8314027;28;20019;-89
2022/04/14 10:47:43;;;;;;;;;;;23.00;39.10;;;21.40;41.64;101485.06;8321315;28;20028;-89
2022/04/14 10:52:24;;;;;;;;;;;22.90;39.10;;;21.34;41.52;101477.59;8302600;28;20388;-85
2022/04/14 10:56:49;;;;;;;;;;;22.90;39.10;;;21.29;41.57;101479.00;8310826;28;20016;-90
2022/04/14 11:01:14;;;;;;;;;;;22.80;39.20;;;21.32;41.44;101486.69;8286354;28;20013;-89
2022/04/14 11:05:47;;;;;;;;;;;22.90;39.30;;;21.29;41.35;101477.16;8287948;28;19917;-90
2022/04/14 11:10:12;;;;;;;;;;;22.90;39.40;;;21.35;41.45;101497.03;8321289;28;20031;-90
2022/04/14 11:14:36;;;;;;;;;;;22.80;39.30;;;21.34;41.55;101504.19;8306923;28;19922;-89
2022/04/14 11:19:20;;;;;;;;;;;22.70;39.30;;;21.41;41.39;101509.81;8325401;28;20008;-87
2022/04/14 11:23:42;;;;;;;;;;;22.80;39.40;;;21.21;41.51;101488.47;8315061;28;20008;-87
2022/04/14 11:28:26;;;;;;;;;;;22.70;39.40;;;21.26;41.34;101513.81;8315203;28;20449;-90
2022/04/14 11:32:48;;;;;;;;;;;22.70;39.40;;;21.23;41.31;101519.41;8303304;28;20004;-93
2022/04/14 11:37:41;;;;;;;;;;;22.60;39.50;;;21.27;41.34;101534.91;8310446;28;20015;-93
2022/04/14 11:42:08;;;;;;;;;;;22.60;39.50;;;21.18;41.28;101535.72;8306686;28;20007;-92
2022/04/14 11:46:30;;;;;;;;;;;22.60;39.30;;;21.10;41.33;101525.75;8301082;28;20004;-93
2022/04/14 11:50:55;;;;;;;;;;;22.50;39.30;;;21.10;41.42;101538.22;8309277;28;19999;-94
2022/04/14 11:55:36;;;;;;;;;;;22.50;39.90;;;21.10;41.35;101548.84;8291417;28;20001;-93
2022/04/14 12:00:10;;;;;;;;;;;22.40;39.30;;;20.98;41.57;101546.28;8306210;28;19989;-93
2022/04/14 12:04:39;;;;;;;;;;;22.30;39.40;;;20.99;41.30;101550.59;8292931;28;20380;-86
2022/04/14 12:09:00;;;;;;;;;;;22.30;39.90;;;20.94;41.23;101552.81;8311602;28;20008;-93
2022/04/14 12:13:31;;;;;;;;;;;22.20;39.50;;;20.91;41.26;101557.53;8293365;28;19985;-93
2022/04/14 12:18:03;;;;;;;;;;;22.30;39.50;;;20.83;41.15;101557.38;8287608;28;19924;-93
2022/04/14 12:22:28;;;;;;;;;;;22.10;39.50;;;20.69;41.27;101545.28;8283499;28;20016;-94
2022/04/14 12:26:50;;;;;;;;;;;22.00;39.50;;;20.68;41.38;101543.56;8287179;28;19999;-93
2022/04/14 12:31:12;;;;;;;;;;;22.00;39.60;;;20.65;41.29;101547.31;8291633;28;20357;-92
2022/04/14 12:35:39;;;;;;;;;;;21.90;39.70;;;20.55;41.44;101541.13;8301486;28;19988;-93
2022/04/14 12:40:02;;;;;;;;;;;21.90;39.60;;;20.52;41.42;101549.28;8306515;28;20011;-93
2022/04/14 12:44:24;;;;;;;;;;;21.80;39.50;;;20.45;41.58;101553.47;8286799;28;20020;-93
2022/04/14 12:49:08;;;;;;;;;;;21.80;39.70;;;20.38;41.37;101566.38;8299257;28;20021;-93
2022/04/14 12:53:30;;;;;;;;;;;21.70;39.60;;;20.37;41.64;101567.34;8307163;28;19929;-93
2022/04/14 12:58:13;;;;;;;;;;;21.60;39.80;;;20.23;41.39;101562.38;8260657;28;20329;-93
2022/04/14 13:02:41;;;;;;;;;;;21.50;39.80;;;20.16;41.59;101567.31;8305771;28;20008;-94
2022/04/14 13:07:03;;;;;;;;;;;21.50;39.70;;;20.20;41.38;101575.84;8317157;28;20624;-93
2022/04/14 13:11:48;;;;;;;;;;;21.40;39.70;;;20.10;41.57;101592.53;8294969;28;19923;-92
2022/04/14 13:16:10;;;;;;;;;;;21.30;39.70;;;19.87;41.50;101570.56;8288846;28;19925;-92
2022/04/14 13:20:36;;;;;;;;;;;21.20;39.70;;;19.88;41.66;101571.41;8310395;28;20043;-92
2022/04/14 13:25:07;;;;;;;;;;;21.10;39.60;;;19.86;41.55;101568.03;8293732;28;20373;-91
2022/04/14 13:29:29;;;;;;;;;;;21.10;39.70;;;19.73;41.48;101568.16;8292647;28;19924;-92
2022/04/14 13:33:50;;;;;;;;;;;21.10;39.80;;;19.64;41.44;101590.91;8309238;28;19931;-92
2022/04/14 13:38:13;;;;;;;;;;;20.90;39.70;;;19.58;41.68;101596.72;8297050;28;20016;-92
2022/04/14 13:42:35;;;;;;;;;;;20.80;39.80;;;19.56;41.59;101608.41;8294191;28;20000;-91
2022/04/14 13:46:58;;;;;;;;;;;20.70;39.80;;;19.43;41.47;101612.00;8325988;28;20000;-88
2022/04/14 13:51:19;;;;;;;;;;;20.70;40.10;;;19.28;41.67;101599.97;8282466;28;19917;-87
2022/04/14 13:55:41;;;;;;;;;;;20.60;40.20;;;19.33;41.83;101626.06;8275643;28;20699;-87
2022/04/14 14:00:05;;;;;;;;;;;20.50;40.20;;;19.22;41.96;101611.03;8314780;28;20023;-85
2022/04/14 14:04:26;;;;;;;;;;;20.40;40.40;;;19.10;41.87;101590.81;8301500;28;19917;-86
2022/04/14 14:08:48;;;;;;;;;;;20.30;40.50;;;19.10;41.86;101607.53;8281618;28;20007;-85
2022/04/14 14:13:09;;;;;;;;;;;20.10;40.60;;;19.10;41.83;101606.69;8299784;28;20000;-85
2022/04/14 14:17:31;;;;;;;;;;;20.20;40.60;;;18.98;42.07;101582.84;8306614;28;19929;-83
2022/04/14 14:21:53;;;;;;;;;;;20.10;40.90;;;18.89;42.06;101575.59;8315001;28;20357;-85
2022/04/14 14:26:15;;;;;;;;;;;20.10;41.20;;;18.89;42.04;101583.53;8294680;28;20004;-84
2022/04/14 14:30:37;;;;;;;;;;;20.00;41.00;;;18.70;42.16;101573.50;8294105;28;19927;-84
2022/04/14 14:34:58;;;;;;;;;;;20.00;41.10;;;18.69;42.27;101623.91;8298335;28;19922;-85
2022/04/14 14:39:21;;;;;;;;;;;19.90;41.10;;;18.51;42.37;101616.34;8291577;28;19924;-86
2022/04/14 14:43:42;;;;;;;;;;;19.80;41.30;;;18.40;42.40;101608.38;8298044;28;20008;-84
2022/04/14 14:48:04;;;;;;;;;;;19.60;41.30;;;18.39;42.54;101616.41;8295409;28;20000;-85
2022/04/14 14:52:26;;;;;;;;;;;19.60;41.50;;;18.32;42.44;101605.47;8290271;28;19925;-86
2022/04/14 14:56:51;;;;;;;;;;;19.50;41.70;;;18.28;42.52;101614.56;8315158;28;19936;-85
2022/04/14 15:01:16;;;;;;;;;;;19.40;41.60;;;18.20;42.54;101596.66;8291971;28;20305;-86
2022/04/14 15:05:38;;;;;;;;;;;19.40;41.50;;;18.06;42.73;101578.28;8284566;28;19928;-86
2022/04/14 15:10:00;;;;;;;;;;;19.50;41.60;;;18.13;42.71;101598.88;8298732;28;20515;-87
2022/04/14 15:14:22;;;;;;;;;;;19.20;41.50;;;18.05;42.73;101603.88;8272992;28;19929;-86
2022/04/14 15:18:43;;;;;;;;;;;19.20;42.00;;;17.97;42.90;101595.66;8262823;28;19925;-87
2022/04/14 15:23:05;;;;;;;;;;;19.20;41.90;;;17.96;42.87;101593.13;8282686;28;19927;-87
2022/04/14 15:27:27;;;;;;;;;;;19.10;41.80;;;18.05;42.93;101613.63;8270062;28;19921;-85
2022/04/14 15:31:50;;;;;;;;;;;19.10;42.30;;;17.95;43.01;101587.00;8310473;28;19928;-87
2022/04/14 15:36:13;;;;;;;;;;;19.10;41.90;;;17.92;42.97;101603.06;8287474;28;19929;-88
2022/04/14 15:40:35;;;;;;;;;;;19.00;42.00;;;17.81;43.06;101584.53;8311164;28;20330;-87
2022/04/14 15:44:57;;;;;;;;;;;19.00;42.20;;;17.87;42.81;101607.84;8309849;28;19921;-86
2022/04/14 15:49:18;;;;;;;;;;;18.90;42.00;;;17.81;43.19;101582.72;8282236;28;19926;-87
2022/04/14 15:53:40;;;;;;;;;;;18.90;42.10;;;17.76;43.23;101581.31;8294176;28;19920;-87
2022/04/14 15:58:01;;;;;;;;;;;18.90;42.10;;;17.74;43.12;101584.09;8314161;28;19931;-86
2022/04/14 16:02:23;;;;;;;;;;;18.90;42.20;;;17.78;43.43;101587.34;8293353;28;20512;-87
2022/04/14 16:06:45;;;;;;;;;;;18.80;42.50;;;17.59;43.32;101567.53;8305467;28;19927;-88
2022/04/14 16:15:48;;;;;;;;;;;18.80;42.50;;;17.51;43.35;101563.75;8314445;28;19931;-87
2022/04/14 16:20:10;;;;;;;;;;;18.70;42.20;;;17.52;43.41;101568.06;8319093;28;20297;-86
2022/04/14 16:24:31;;;;;;;;;;;18.70;42.20;;;17.51;43.67;101569.88;8286452;28;19921;-86
2022/04/14 16:28:54;;;;;;;;;;;18.70;42.20;;;17.48;43.53;101563.00;8310444;28;19921;-87
2022/04/14 16:33:22;;;;;;;;;;;18.60;42.30;;;17.47;43.56;101561.34;8296147;28;19940;-88
2022/04/14 16:37:48;;;;;;;;;;;18.70;42.40;;;16.96;43.52;101476.94;8290308;28;19928;-88
2022/04/14 16:42:11;;;;;;;;;;;18.70;42.60;;;16.88;43.58;101467.88;8281127;28;20508;-87
2022/04/14 16:46:33;;;;;;;;;;;18.60;42.40;;;17.30;43.67;101550.25;8314360;28;19961;-86
2022/04/14 16:50:55;;;;;;;;;;;18.60;42.80;;;17.21;43.75;101546.47;8303808;28;20415;-87
2022/04/14 16:55:17;;;;;;;;;;;18.50;43.50;;;17.20;43.72;101558.84;8309812;28;19929;-87
2022/04/14 16:59:39;;;;;;;;;;;18.60;42.90;;;17.35;44.06;101579.84;8285108;28;19926;-85
2022/04/14 17:04:01;;;;;;;;;;;18.50;42.80;;;17.25;44.10;101577.84;8289391;28;19933;-90
2022/04/14 17:08:23;;;;;;;;;;;18.50;43.00;;;17.30;43.91;101590.69;8290241;28;19925;-88
2022/04/14 17:12:44;;;;;;;;;;;18.50;42.90;;;17.34;44.05;101591.34;8306632;28;19927;-87
2022/04/14 17:17:07;;;;;;;;;;;18.50;43.00;;;17.23;44.06;101582.38;8285725;28;19941;-87
2022/04/14 17:26:08;;;;;;;;;;;18.50;43.00;;;17.20;44.03;101593.16;8308249;28;19927;-87
2022/04/14 17:30:30;;;;;;;;;;;18.30;42.90;;;17.19;44.25;101598.53;8302031;28;19927;-86
2022/04/14 17:34:52;;;;;;;;;;;18.50;43.00;;;17.17;44.00;101589.88;8300068;28;20278;-87
2022/04/14 17:39:14;;;;;;;;;;;18.40;42.90;;;17.17;44.24;101595.16;8320409;28;19921;-86
2022/04/14 17:43:36;;;;;;;;;;;18.40;42.90;;;17.21;44.39;101594.84;8316723;28;19921;-86
2022/04/14 17:47:58;;;;;;;;;;;18.50;42.90;;;17.26;44.27;101615.66;8267738;28;20309;-87
2022/04/14 17:52:20;;;;;;;;;;;18.50;42.90;;;17.22;44.46;101609.72;8290249;28;19967;-87
2022/04/14 17:56:41;;;;;;;;;;;18.40;42.80;;;17.16;44.47;101611.94;8290191;28;19925;-87
2022/04/14 18:01:04;;;;;;;;;;;18.30;42.80;;;17.12;44.40;101610.44;8305385;28;19925;-87
2022/04/14 18:05:26;;;;;;;;;;;18.40;42.90;;;17.10;44.57;101623.78;8292545;28;19921;-85
2022/04/14 18:09:47;;;;;;;;;;;18.40;42.80;;;17.03;44.53;101622.50;8302164;28;19921;-86
2022/04/14 18:14:09;;;;;;;;;;;18.30;42.70;;;16.96;44.60;101613.31;8328429;28;19925;-86
2022/04/14 18:18:30;;;;;;;;;;;18.20;42.70;;;16.86;44.64;101601.69;8295587;28;19931;-86
2022/04/14 18:22:53;;;;;;;;;;;18.20;42.70;;;16.97;44.78;101638.75;8305534;28;19927;-89
2022/04/14 18:27:17;;;;;;;;;;;18.20;42.80;;;16.89;44.33;101636.63;8309696;28;19921;-85
2022/04/14 18:31:42;;;;;;;;;;;18.10;42.80;;;16.82;44.71;101637.97;8309584;28;19921;-85
2022/04/14 18:36:07;;;;;;;;;;;18.00;42.80;;;16.78;44.52;101639.13;8303307;28;20399;-86
2022/04/14 18:40:41;;;;;;;;;;;18.00;43.10;;;16.61;44.79;101634.94;8309213;28;19927;-86
2022/04/14 18:45:03;;;;;;;;;;;17.90;43.10;;;16.62;44.86;101643.72;8303859;28;19925;-85
2022/04/14 18:49:25;;;;;;;;;;;17.90;43.10;;;16.63;44.73;101656.78;8302212;28;19921;-85
2022/04/14 18:53:47;;;;;;;;;;;17.80;43.10;;;16.55;44.73;101649.38;8307447;28;19921;-85
2022/04/14 18:58:11;;;;;;;;;;;17.80;43.20;;;16.53;44.69;101658.34;8305319;28;19925;-85
2022/04/14 19:02:33;;;;;;;;;;;17.80;43.20;;;16.53;45.15;101663.63;8296913;28;19925;-86
2022/04/14 19:06:54;;;;;;;;;;;17.80;43.20;;;16.42;44.96;101648.50;8300995;28;19921;-85
2022/04/14 19:11:16;;;;;;;;;;;17.80;43.30;;;16.36;44.93;101646.25;8306627;28;19943;-86
2022/04/14 19:15:39;;;;;;;;;;;17.70;43.30;;;16.43;44.80;101663.34;8283430;28;20297;-86
2022/04/14 19:20:04;;;;;;;;;;;17.70;43.40;;;16.41;44.94;101664.41;8297147;28;19921;-84
2022/04/14 19:24:26;;;;;;;;;;;17.60;43.40;;;16.41;44.98;101672.31;8291427;28;19928;-86
2022/04/14 19:28:54;;;;;;;;;;;17.50;43.40;;;16.32;45.31;101656.16;8268849;28;19917;-85
2022/04/14 19:33:19;;;;;;;;;;;17.60;43.50;;;16.31;45.37;101656.22;8301376;28;19928;-85
2022/04/14 19:37:41;;;;;;;;;;;17.70;43.70;;;16.23;45.29;101646.22;8285345;28;19931;-84
2022/04/14 19:42:03;;;;;;;;;;;17.50;43.60;;;16.25;45.23;101646.94;8286518;28;19929;-85
2022/04/14 19:46:25;;;;;;;;;;;17.60;43.70;;;16.29;45.49;101651.06;8299982;28;19920;-84
2022/04/14 19:50:47;;;;;;;;;;;17.60;43.70;;;16.30;45.25;101641.38;8285654;28;20008;-83
2022/04/14 19:55:13;;;;;;;;;;;17.50;43.70;;;16.13;45.42;101616.13;8324302;28;19947;-82
2022/04/14 19:59:35;;;;;;;;;;;17.50;43.90;;;16.18;45.23;101624.56;8310755;28;19917;-82
2022/04/14 20:03:56;;;;;;;;;;;17.50;43.90;;;16.21;45.20;101632.28;8322706;28;19917;-82
2022/04/14 20:08:19;;;;;;;;;;;17.40;43.80;;;16.19;45.45;101609.59;8321454;28;19925;-82
2022/04/14 20:12:40;;;;;;;;;;;17.40;44.10;;;16.09;45.25;101602.28;8319518;28;19924;-82